sensor_id;sensor_type;location;lat;lon;timestamp;temperature;humidity
15115;DHT22;7658;51.456;7.622;2023-03-18T00:01:13;11.20;99.90
15115;DHT22;7658;51.456;7.622;2023-03-18T00:03:39;11.20;99.90
15115;DHT22;7658;51.456;7.622;2023-03-18T00:06:12;11.20;99.90
15115;DHT22;7658;51.456;7.622;2023-03-18T00:08:41;11.20;99.90
15115;DHT22;7658;51.456;7.622;2023-03-18T00:11:08;11.20;99.90
15115;DHT22;7658;51.456;7.622;2023-03-18T00:13:36;11.20;99.90
15115;DHT22;7658;51.456;7.622;2023-03-18T00:16:03;11.20;99.90
15115;DHT22;7658;51.456;7.622;2023-03-18T00:18:29;11.30;99.90
15115;DHT22;7658;51.456;7.622;2023-03-18T00:20:56;11.30;99.90
15115;DHT22;7658;51.456;7.622;2023-03-18T00:23:24;11.30;99.90
15115;DHT22;7658;51.456;7.622;2023-03-18T00:25:53;11.30;99.90
15115;DHT22;7658;51.456;7.622;2023-03-18T00:28:19;11.30;99.90
15115;DHT22;7658;51.456;7.622;2023-03-18T00:30:44;11.30;99.90
15115;DHT22;7658;51.456;7.622;2023-03-18T00:33:11;11.20;99.90
15115;DHT22;7658;51.456;7.622;2023-03-18T00:35:37;11.20;99.90
15115;DHT22;7658;51.456;7.622;2023-03-18T00:38:04;11.20;99.90
15115;DHT22;7658;51.456;7.622;2023-03-18T00:40:33;11.30;99.90
15115;DHT22;7658;51.456;7.622;2023-03-18T00:43:21;11.30;99.90
15115;DHT22;7658;51.456;7.622;2023-03-18T00:45:48;11.30;99.90
15115;DHT22;7658;51.456;7.622;2023-03-18T00:48:16;11.30;99.90
15115;DHT22;7658;51.456;7.622;2023-03-18T00:50:43;11.40;99.90
15115;DHT22;7658;51.456;7.622;2023-03-18T00:53:09;11.40;99.90
15115;DHT22;7658;51.456;7.622;2023-03-18T00:55:36;11.40;99.90
15115;DHT22;7658;51.456;7.622;2023-03-18T00:58:02;11.50;99.90
15115;DHT22;7658;51.456;7.622;2023-03-18T01:00:28;11.60;99.90
15115;DHT22;7658;51.456;7.622;2023-03-18T01:02:54;11.50;99.90
15115;DHT22;7658;51.456;7.622;2023-03-18T01:05:21;11.50;99.90
15115;DHT22;7658;51.456;7.622;2023-03-18T01:07:47;11.50;99.90
15115;DHT22;7658;51.456;7.622;2023-03-18T01:10:14;11.50;99.90
15115;DHT22;7658;51.456;7.622;2023-03-18T01:12:41;11.50;99.90
15115;DHT22;7658;51.456;7.622;2023-03-18T01:15:13;11.50;99.90
15115;DHT22;7658;51.456;7.622;2023-03-18T01:17:38;11.50;99.90
15115;DHT22;7658;51.456;7.622;2023-03-18T01:20:05;11.50;99.90
15115;DHT22;7658;51.456;7.622;2023-03-18T01:22:31;11.50;99.90
15115;DHT22;7658;51.456;7.622;2023-03-18T01:24:56;11.50;99.90
15115;DHT22;7658;51.456;7.622;2023-03-18T01:27:23;11.50;99.90
15115;DHT22;7658;51.456;7.622;2023-03-18T01:29:49;11.40;99.90
15115;DHT22;7658;51.456;7.622;2023-03-18T01:32:14;11.40;99.90
15115;DHT22;7658;51.456;7.622;2023-03-18T01:34:41;11.30;99.90
15115;DHT22;7658;51.456;7.622;2023-03-18T01:37:07;11.30;99.90
15115;DHT22;7658;51.456;7.622;2023-03-18T01:39:32;11.30;99.90
15115;DHT22;7658;51.456;7.622;2023-03-18T01:41:59;11.30;99.90
15115;DHT22;7658;51.456;7.622;2023-03-18T01:44:25;11.30;99.90
15115;DHT22;7658;51.456;7.622;2023-03-18T01:46:53;11.30;99.90
15115;DHT22;7658;51.456;7.622;2023-03-18T01:49:37;11.30;99.90
15115;DHT22;7658;51.456;7.622;2023-03-18T01:52:08;11.30;99.90
15115;DHT22;7658;51.456;7.622;2023-03-18T01:54:40;11.30;99.90
15115;DHT22;7658;51.456;7.622;2023-03-18T01:57:08;11.30;99.90
15115;DHT22;7658;51.456;7.622;2023-03-18T01:59:37;11.30;99.90
15115;DHT22;7658;51.456;7.622;2023-03-18T02:02:07;11.30;99.90
15115;DHT22;7658;51.456;7.622;2023-03-18T02:04:42;11.30;99.90
15115;DHT22;7658;51.456;7.622;2023-03-18T02:07:22;11.30;99.90
15115;DHT22;7658;51.456;7.622;2023-03-18T02:09:49;11.30;99.90
15115;DHT22;7658;51.456;7.622;2023-03-18T02:12:28;11.30;99.90
15115;DHT22;7658;51.456;7.622;2023-03-18T02:14:55;11.30;99.90
15115;DHT22;7658;51.456;7.622;2023-03-18T02:17:30;11.30;99.90
15115;DHT22;7658;51.456;7.622;2023-03-18T02:22:38;11.30;99.90
15115;DHT22;7658;51.456;7.622;2023-03-18T02:27:56;11.30;99.90
15115;DHT22;7658;51.456;7.622;2023-03-18T02:30:32;11.30;99.90
15115;DHT22;7658;51.456;7.622;2023-03-18T02:32:58;11.30;99.90
15115;DHT22;7658;51.456;7.622;2023-03-18T02:35:26;11.20;99.90
15115;DHT22;7658;51.456;7.622;2023-03-18T02:37:52;11.20;99.90
15115;DHT22;7658;51.456;7.622;2023-03-18T02:40:23;11.20;99.90
15115;DHT22;7658;51.456;7.622;2023-03-18T02:42:49;11.20;99.90
15115;DHT22;7658;51.456;7.622;2023-03-18T02:48:23;11.10;99.90
15115;DHT22;7658;51.456;7.622;2023-03-18T02:50:51;11.20;99.90
15115;DHT22;7658;51.456;7.622;2023-03-18T02:53:18;11.20;99.90
15115;DHT22;7658;51.456;7.622;2023-03-18T02:55:44;11.20;99.90
15115;DHT22;7658;51.456;7.622;2023-03-18T02:58:10;11.20;99.90
15115;DHT22;7658;51.456;7.622;2023-03-18T03:00:36;11.30;99.90
15115;DHT22;7658;51.456;7.622;2023-03-18T03:03:02;11.20;99.90
15115;DHT22;7658;51.456;7.622;2023-03-18T03:05:28;11.10;99.90
15115;DHT22;7658;51.456;7.622;2023-03-18T03:07:54;11.10;99.90
15115;DHT22;7658;51.456;7.622;2023-03-18T03:10:20;11.10;99.90
15115;DHT22;7658;51.456;7.622;2023-03-18T03:12:46;11.00;99.90
15115;DHT22;7658;51.456;7.622;2023-03-18T03:15:12;10.90;99.90
15115;DHT22;7658;51.456;7.622;2023-03-18T03:17:38;10.90;99.90
15115;DHT22;7658;51.456;7.622;2023-03-18T03:20:06;10.80;99.90
15115;DHT22;7658;51.456;7.622;2023-03-18T03:22:33;10.80;99.90
15115;DHT22;7658;51.456;7.622;2023-03-18T03:24:59;10.80;99.90
15115;DHT22;7658;51.456;7.622;2023-03-18T03:27:28;10.70;99.90
15115;DHT22;7658;51.456;7.622;2023-03-18T03:29:54;10.60;99.90
15115;DHT22;7658;51.456;7.622;2023-03-18T03:32:21;10.50;99.90
15115;DHT22;7658;51.456;7.622;2023-03-18T03:34:46;10.50;99.90
15115;DHT22;7658;51.456;7.622;2023-03-18T03:37:13;10.40;99.90
15115;DHT22;7658;51.456;7.622;2023-03-18T03:39:39;10.40;99.90
15115;DHT22;7658;51.456;7.622;2023-03-18T03:42:05;10.30;99.90
15115;DHT22;7658;51.456;7.622;2023-03-18T03:44:31;10.30;99.90
15115;DHT22;7658;51.456;7.622;2023-03-18T03:46:57;10.30;99.90
15115;DHT22;7658;51.456;7.622;2023-03-18T03:49:23;10.30;99.90
15115;DHT22;7658;51.456;7.622;2023-03-18T03:51:49;10.20;99.90
15115;DHT22;7658;51.456;7.622;2023-03-18T03:54:15;10.10;99.90
15115;DHT22;7658;51.456;7.622;2023-03-18T03:56:41;10.10;99.90
15115;DHT22;7658;51.456;7.622;2023-03-18T03:59:08;10.10;99.90
15115;DHT22;7658;51.456;7.622;2023-03-18T04:01:35;10.10;99.90
15115;DHT22;7658;51.456;7.622;2023-03-18T04:04:01;10.20;99.90
15115;DHT22;7658;51.456;7.622;2023-03-18T04:06:28;10.20;99.90
15115;DHT22;7658;51.456;7.622;2023-03-18T04:08:54;10.30;99.90
15115;DHT22;7658;51.456;7.622;2023-03-18T04:11:20;10.20;99.90
15115;DHT22;7658;51.456;7.622;2023-03-18T04:13:46;10.20;99.90
15115;DHT22;7658;51.456;7.622;2023-03-18T04:16:12;10.20;99.90
15115;DHT22;7658;51.456;7.622;2023-03-18T04:18:39;10.10;99.90
15115;DHT22;7658;51.456;7.622;2023-03-18T04:21:05;10.10;99.90
15115;DHT22;7658;51.456;7.622;2023-03-18T04:23:32;10.10;99.90
15115;DHT22;7658;51.456;7.622;2023-03-18T04:25:58;10.10;99.90
15115;DHT22;7658;51.456;7.622;2023-03-18T04:28:25;10.10;99.90
15115;DHT22;7658;51.456;7.622;2023-03-18T04:30:51;10.10;99.90
15115;DHT22;7658;51.456;7.622;2023-03-18T04:33:17;10.10;99.90
15115;DHT22;7658;51.456;7.622;2023-03-18T04:35:44;10.00;99.90
15115;DHT22;7658;51.456;7.622;2023-03-18T04:38:10;10.00;99.90
15115;DHT22;7658;51.456;7.622;2023-03-18T04:40:36;10.00;99.90
15115;DHT22;7658;51.456;7.622;2023-03-18T04:43:02;9.90;99.90
15115;DHT22;7658;51.456;7.622;2023-03-18T04:45:28;9.90;99.90
15115;DHT22;7658;51.456;7.622;2023-03-18T04:47:54;9.90;99.90
15115;DHT22;7658;51.456;7.622;2023-03-18T04:50:21;9.90;99.90
15115;DHT22;7658;51.456;7.622;2023-03-18T04:52:47;9.90;99.90
15115;DHT22;7658;51.456;7.622;2023-03-18T04:55:13;9.90;99.90
15115;DHT22;7658;51.456;7.622;2023-03-18T04:57:41;9.90;99.90
15115;DHT22;7658;51.456;7.622;2023-03-18T05:00:09;9.90;99.90
15115;DHT22;7658;51.456;7.622;2023-03-18T05:02:37;9.90;99.90
15115;DHT22;7658;51.456;7.622;2023-03-18T05:05:03;9.80;99.90
15115;DHT22;7658;51.456;7.622;2023-03-18T05:07:28;9.80;99.90
15115;DHT22;7658;51.456;7.622;2023-03-18T05:09:54;9.70;99.90
15115;DHT22;7658;51.456;7.622;2023-03-18T05:12:20;9.70;99.90
15115;DHT22;7658;51.456;7.622;2023-03-18T05:14:46;9.70;99.90
15115;DHT22;7658;51.456;7.622;2023-03-18T05:17:12;9.70;99.90
15115;DHT22;7658;51.456;7.622;2023-03-18T05:19:43;9.70;99.90
15115;DHT22;7658;51.456;7.622;2023-03-18T05:22:10;9.70;99.90
15115;DHT22;7658;51.456;7.622;2023-03-18T05:24:37;9.70;99.90
15115;DHT22;7658;51.456;7.622;2023-03-18T05:27:03;9.70;99.90
15115;DHT22;7658;51.456;7.622;2023-03-18T05:29:29;9.70;99.90
15115;DHT22;7658;51.456;7.622;2023-03-18T05:31:54;9.70;99.90
15115;DHT22;7658;51.456;7.622;2023-03-18T05:34:20;9.90;99.90
15115;DHT22;7658;51.456;7.622;2023-03-18T05:36:46;9.90;99.90
15115;DHT22;7658;51.456;7.622;2023-03-18T05:39:12;9.90;99.90
15115;DHT22;7658;51.456;7.622;2023-03-18T05:41:38;9.90;99.90
15115;DHT22;7658;51.456;7.622;2023-03-18T05:44:04;10.00;99.90
15115;DHT22;7658;51.456;7.622;2023-03-18T05:46:30;10.00;99.90
15115;DHT22;7658;51.456;7.622;2023-03-18T05:48:56;10.00;99.90
15115;DHT22;7658;51.456;7.622;2023-03-18T05:51:22;10.00;99.90
15115;DHT22;7658;51.456;7.622;2023-03-18T05:53:47;10.00;99.90
15115;DHT22;7658;51.456;7.622;2023-03-18T05:56:13;10.00;99.90
15115;DHT22;7658;51.456;7.622;2023-03-18T05:58:39;10.00;99.90
15115;DHT22;7658;51.456;7.622;2023-03-18T06:01:05;10.00;99.90
15115;DHT22;7658;51.456;7.622;2023-03-18T06:03:32;10.00;99.90
15115;DHT22;7658;51.456;7.622;2023-03-18T06:06:00;10.00;99.90
15115;DHT22;7658;51.456;7.622;2023-03-18T06:08:26;10.10;99.90
15115;DHT22;7658;51.456;7.622;2023-03-18T06:10:52;10.10;99.90
15115;DHT22;7658;51.456;7.622;2023-03-18T06:13:19;10.20;99.90
15115;DHT22;7658;51.456;7.622;2023-03-18T06:15:45;10.20;99.90
15115;DHT22;7658;51.456;7.622;2023-03-18T06:18:12;10.20;99.90
15115;DHT22;7658;51.456;7.622;2023-03-18T06:20:38;10.20;99.90
15115;DHT22;7658;51.456;7.622;2023-03-18T06:23:04;10.30;99.90
15115;DHT22;7658;51.456;7.622;2023-03-18T06:25:30;10.30;99.90
15115;DHT22;7658;51.456;7.622;2023-03-18T06:27:56;10.30;99.90
15115;DHT22;7658;51.456;7.622;2023-03-18T06:30:22;10.40;99.90
15115;DHT22;7658;51.456;7.622;2023-03-18T06:32:48;10.40;99.90
15115;DHT22;7658;51.456;7.622;2023-03-18T06:35:14;10.40;99.90
15115;DHT22;7658;51.456;7.622;2023-03-18T06:37:40;10.40;99.90
15115;DHT22;7658;51.456;7.622;2023-03-18T06:40:07;10.40;99.90
15115;DHT22;7658;51.456;7.622;2023-03-18T06:42:33;10.40;99.90
15115;DHT22;7658;51.456;7.622;2023-03-18T06:44:59;10.40;99.90
15115;DHT22;7658;51.456;7.622;2023-03-18T06:47:24;10.50;99.90
15115;DHT22;7658;51.456;7.622;2023-03-18T06:49:50;10.50;99.90
15115;DHT22;7658;51.456;7.622;2023-03-18T06:52:17;10.50;99.90
15115;DHT22;7658;51.456;7.622;2023-03-18T06:54:44;10.60;99.90
15115;DHT22;7658;51.456;7.622;2023-03-18T06:57:10;10.60;99.90
15115;DHT22;7658;51.456;7.622;2023-03-18T06:59:36;10.60;99.90
15115;DHT22;7658;51.456;7.622;2023-03-18T07:02:02;10.70;99.90
15115;DHT22;7658;51.456;7.622;2023-03-18T07:04:30;10.70;99.90
15115;DHT22;7658;51.456;7.622;2023-03-18T07:06:55;10.70;99.90
15115;DHT22;7658;51.456;7.622;2023-03-18T07:09:22;10.70;99.90
15115;DHT22;7658;51.456;7.622;2023-03-18T07:11:49;10.70;99.90
15115;DHT22;7658;51.456;7.622;2023-03-18T07:14:15;10.70;99.90
15115;DHT22;7658;51.456;7.622;2023-03-18T07:16:40;10.80;99.90
15115;DHT22;7658;51.456;7.622;2023-03-18T07:19:06;10.80;99.90
15115;DHT22;7658;51.456;7.622;2023-03-18T07:21:32;10.80;99.90
15115;DHT22;7658;51.456;7.622;2023-03-18T07:23:59;10.80;99.90
15115;DHT22;7658;51.456;7.622;2023-03-18T07:26:25;10.80;99.90
15115;DHT22;7658;51.456;7.622;2023-03-18T07:28:52;10.90;99.90
15115;DHT22;7658;51.456;7.622;2023-03-18T07:31:18;10.90;99.90
15115;DHT22;7658;51.456;7.622;2023-03-18T07:33:43;11.00;99.90
15115;DHT22;7658;51.456;7.622;2023-03-18T07:36:09;11.00;99.90
15115;DHT22;7658;51.456;7.622;2023-03-18T07:38:35;11.10;99.90
15115;DHT22;7658;51.456;7.622;2023-03-18T07:41:00;11.10;99.90
15115;DHT22;7658;51.456;7.622;2023-03-18T07:43:26;11.20;99.90
15115;DHT22;7658;51.456;7.622;2023-03-18T07:45:52;11.20;99.90
15115;DHT22;7658;51.456;7.622;2023-03-18T07:48:18;11.30;99.90
15115;DHT22;7658;51.456;7.622;2023-03-18T07:50:44;11.30;99.90
15115;DHT22;7658;51.456;7.622;2023-03-18T07:53:10;11.40;99.90
15115;DHT22;7658;51.456;7.622;2023-03-18T07:55:37;11.50;99.90
15115;DHT22;7658;51.456;7.622;2023-03-18T07:58:03;11.50;99.90
15115;DHT22;7658;51.456;7.622;2023-03-18T08:00:29;11.50;99.90
15115;DHT22;7658;51.456;7.622;2023-03-18T08:02:55;11.70;99.90
15115;DHT22;7658;51.456;7.622;2023-03-18T08:05:21;11.70;99.90
15115;DHT22;7658;51.456;7.622;2023-03-18T08:07:47;11.70;99.90
15115;DHT22;7658;51.456;7.622;2023-03-18T08:10:13;11.70;99.90
15115;DHT22;7658;51.456;7.622;2023-03-18T08:12:40;11.80;99.90
15115;DHT22;7658;51.456;7.622;2023-03-18T08:15:07;11.70;99.90
15115;DHT22;7658;51.456;7.622;2023-03-18T08:17:33;11.80;99.90
15115;DHT22;7658;51.456;7.622;2023-03-18T08:19:59;11.80;99.90
15115;DHT22;7658;51.456;7.622;2023-03-18T08:22:25;11.80;99.90
15115;DHT22;7658;51.456;7.622;2023-03-18T08:24:51;11.90;99.90
15115;DHT22;7658;51.456;7.622;2023-03-18T08:27:17;11.90;99.90
15115;DHT22;7658;51.456;7.622;2023-03-18T08:29:43;11.90;99.90
15115;DHT22;7658;51.456;7.622;2023-03-18T08:32:10;11.90;99.90
15115;DHT22;7658;51.456;7.622;2023-03-18T08:34:36;11.90;99.90
15115;DHT22;7658;51.456;7.622;2023-03-18T08:37:02;11.90;99.90
15115;DHT22;7658;51.456;7.622;2023-03-18T08:39:28;12.00;99.90
15115;DHT22;7658;51.456;7.622;2023-03-18T08:41:53;12.10;99.90
15115;DHT22;7658;51.456;7.622;2023-03-18T08:44:19;12.10;99.90
15115;DHT22;7658;51.456;7.622;2023-03-18T08:46:45;12.20;99.90
15115;DHT22;7658;51.456;7.622;2023-03-18T08:49:11;12.30;99.90
15115;DHT22;7658;51.456;7.622;2023-03-18T08:51:38;12.30;99.90
15115;DHT22;7658;51.456;7.622;2023-03-18T08:54:04;12.40;99.90
15115;DHT22;7658;51.456;7.622;2023-03-18T08:56:30;12.40;99.90
15115;DHT22;7658;51.456;7.622;2023-03-18T08:58:56;12.50;99.90
15115;DHT22;7658;51.456;7.622;2023-03-18T09:01:22;12.60;99.90
15115;DHT22;7658;51.456;7.622;2023-03-18T09:03:48;12.60;99.90
15115;DHT22;7658;51.456;7.622;2023-03-18T09:06:15;12.70;99.90
15115;DHT22;7658;51.456;7.622;2023-03-18T09:08:41;12.70;99.90
15115;DHT22;7658;51.456;7.622;2023-03-18T09:11:07;12.70;99.90
15115;DHT22;7658;51.456;7.622;2023-03-18T09:13:34;12.70;99.90
15115;DHT22;7658;51.456;7.622;2023-03-18T09:16:00;12.80;99.90
15115;DHT22;7658;51.456;7.622;2023-03-18T09:18:26;12.90;99.90
15115;DHT22;7658;51.456;7.622;2023-03-18T09:20:52;13.00;99.90
15115;DHT22;7658;51.456;7.622;2023-03-18T09:23:18;13.00;99.90
15115;DHT22;7658;51.456;7.622;2023-03-18T09:25:47;13.00;99.90
15115;DHT22;7658;51.456;7.622;2023-03-18T09:28:15;13.00;99.90
15115;DHT22;7658;51.456;7.622;2023-03-18T09:30:41;13.00;99.90
15115;DHT22;7658;51.456;7.622;2023-03-18T09:33:07;13.10;99.90
15115;DHT22;7658;51.456;7.622;2023-03-18T09:35:35;13.30;99.90
15115;DHT22;7658;51.456;7.622;2023-03-18T09:38:02;13.30;99.90
15115;DHT22;7658;51.456;7.622;2023-03-18T09:40:32;13.30;99.90
15115;DHT22;7658;51.456;7.622;2023-03-18T09:51:39;13.60;99.90
15115;DHT22;7658;51.456;7.622;2023-03-18T09:54:15;13.50;99.90
15115;DHT22;7658;51.456;7.622;2023-03-18T09:56:45;13.40;99.90
15115;DHT22;7658;51.456;7.622;2023-03-18T09:59:39;13.30;99.90
15115;DHT22;7658;51.456;7.622;2023-03-18T10:02:30;13.30;99.90
15115;DHT22;7658;51.456;7.622;2023-03-18T10:05:04;13.60;99.90
15115;DHT22;7658;51.456;7.622;2023-03-18T10:07:35;13.60;99.90
15115;DHT22;7658;51.456;7.622;2023-03-18T10:10:11;13.70;99.90
15115;DHT22;7658;51.456;7.622;2023-03-18T10:12:45;13.90;99.90
15115;DHT22;7658;51.456;7.622;2023-03-18T10:18:36;14.20;99.90
15115;DHT22;7658;51.456;7.622;2023-03-18T10:24:36;14.30;99.90
15115;DHT22;7658;51.456;7.622;2023-03-18T10:27:08;14.30;99.90
15115;DHT22;7658;51.456;7.622;2023-03-18T10:30:05;14.50;99.90
15115;DHT22;7658;51.456;7.622;2023-03-18T10:32:54;14.50;99.90
15115;DHT22;7658;51.456;7.622;2023-03-18T10:35:36;14.60;99.90
15115;DHT22;7658;51.456;7.622;2023-03-18T10:40:47;14.60;99.90
15115;DHT22;7658;51.456;7.622;2023-03-18T10:43:20;14.70;99.90
15115;DHT22;7658;51.456;7.622;2023-03-18T10:45:48;14.80;99.90
15115;DHT22;7658;51.456;7.622;2023-03-18T10:48:27;14.90;99.90
15115;DHT22;7658;51.456;7.622;2023-03-18T10:54:16;15.10;99.90
15115;DHT22;7658;51.456;7.622;2023-03-18T10:56:45;15.10;99.90
15115;DHT22;7658;51.456;7.622;2023-03-18T10:59:13;15.10;99.90
15115;DHT22;7658;51.456;7.622;2023-03-18T11:01:45;15.20;99.90
15115;DHT22;7658;51.456;7.622;2023-03-18T11:04:15;15.40;99.90
15115;DHT22;7658;51.456;7.622;2023-03-18T11:06:58;15.40;99.90
15115;DHT22;7658;51.456;7.622;2023-03-18T11:09:33;15.40;99.90
15115;DHT22;7658;51.456;7.622;2023-03-18T11:12:17;15.70;99.90
15115;DHT22;7658;51.456;7.622;2023-03-18T11:14:47;15.70;99.90
15115;DHT22;7658;51.456;7.622;2023-03-18T11:17:31;15.70;99.90
15115;DHT22;7658;51.456;7.622;2023-03-18T11:22:44;15.60;99.90
15115;DHT22;7658;51.456;7.622;2023-03-18T11:25:22;15.60;99.90
15115;DHT22;7658;51.456;7.622;2023-03-18T11:28:44;15.80;99.90
15115;DHT22;7658;51.456;7.622;2023-03-18T11:31:04;16.20;99.90
15115;DHT22;7658;51.456;7.622;2023-03-18T11:33:31;16.40;99.90
15115;DHT22;7658;51.456;7.622;2023-03-18T11:36:06;16.50;99.90
15115;DHT22;7658;51.456;7.622;2023-03-18T11:38:36;16.70;99.90
15115;DHT22;7658;51.456;7.622;2023-03-18T11:43:33;16.70;99.90
15115;DHT22;7658;51.456;7.622;2023-03-18T11:46:09;16.60;99.90
15115;DHT22;7658;51.456;7.622;2023-03-18T11:48:42;16.80;99.90
15115;DHT22;7658;51.456;7.622;2023-03-18T11:51:41;17.10;99.90
15115;DHT22;7658;51.456;7.622;2023-03-18T11:57:03;17.00;99.90
15115;DHT22;7658;51.456;7.622;2023-03-18T12:18:12;17.40;99.90
15115;DHT22;7658;51.456;7.622;2023-03-18T12:20:50;17.70;99.90
15115;DHT22;7658;51.456;7.622;2023-03-18T12:26:25;18.20;99.90
15115;DHT22;7658;51.456;7.622;2023-03-18T12:31:33;18.40;99.90
15115;DHT22;7658;51.456;7.622;2023-03-18T12:37:05;19.20;99.90
15115;DHT22;7658;51.456;7.622;2023-03-18T12:45:17;18.70;99.90
15115;DHT22;7658;51.456;7.622;2023-03-18T12:47:46;18.40;99.90
15115;DHT22;7658;51.456;7.622;2023-03-18T12:50:17;18.20;99.90
15115;DHT22;7658;51.456;7.622;2023-03-18T12:53:00;18.20;99.90
15115;DHT22;7658;51.456;7.622;2023-03-18T12:55:39;17.90;99.90
15115;DHT22;7658;51.456;7.622;2023-03-18T12:58:18;17.90;99.90
15115;DHT22;7658;51.456;7.622;2023-03-18T13:01:03;18.10;99.90
15115;DHT22;7658;51.456;7.622;2023-03-18T13:14:04;18.20;99.90
15115;DHT22;7658;51.456;7.622;2023-03-18T13:16:33;18.00;99.90
15115;DHT22;7658;51.456;7.622;2023-03-18T13:19:00;17.90;99.90
15115;DHT22;7658;51.456;7.622;2023-03-18T13:21:29;17.90;99.90
15115;DHT22;7658;51.456;7.622;2023-03-18T13:24:11;17.70;99.90
15115;DHT22;7658;51.456;7.622;2023-03-18T13:38:04;17.30;99.90
15115;DHT22;7658;51.456;7.622;2023-03-18T13:43:23;17.20;99.90
15115;DHT22;7658;51.456;7.622;2023-03-18T13:45:52;17.40;99.90
15115;DHT22;7658;51.456;7.622;2023-03-18T13:48:27;17.60;99.90
15115;DHT22;7658;51.456;7.622;2023-03-18T13:50:55;18.00;99.90
15115;DHT22;7658;51.456;7.622;2023-03-18T13:53:33;18.40;99.90
15115;DHT22;7658;51.456;7.622;2023-03-18T13:56:06;18.50;99.90
15115;DHT22;7658;51.456;7.622;2023-03-18T13:58:50;18.40;99.90
15115;DHT22;7658;51.456;7.622;2023-03-18T14:01:29;18.10;99.90
15115;DHT22;7658;51.456;7.622;2023-03-18T14:04:30;17.90;99.90
15115;DHT22;7658;51.456;7.622;2023-03-18T14:07:20;17.50;99.90
15115;DHT22;7658;51.456;7.622;2023-03-18T14:22:43;17.10;99.90
15115;DHT22;7658;51.456;7.622;2023-03-18T14:27:45;17.30;99.90
15115;DHT22;7658;51.456;7.622;2023-03-18T14:35:59;17.70;99.90
15115;DHT22;7658;51.456;7.622;2023-03-18T14:38:45;17.50;99.90
15115;DHT22;7658;51.456;7.622;2023-03-18T14:41:19;17.50;99.90
15115;DHT22;7658;51.456;7.622;2023-03-18T14:46:57;17.10;99.90
15115;DHT22;7658;51.456;7.622;2023-03-18T14:52:43;16.90;99.90
15115;DHT22;7658;51.456;7.622;2023-03-18T14:55:18;16.80;99.90
15115;DHT22;7658;51.456;7.622;2023-03-18T14:57:45;16.90;99.90
15115;DHT22;7658;51.456;7.622;2023-03-18T15:00:15;17.00;99.90
15115;DHT22;7658;51.456;7.622;2023-03-18T15:02:43;17.00;99.90
15115;DHT22;7658;51.456;7.622;2023-03-18T15:05:15;17.00;99.90
15115;DHT22;7658;51.456;7.622;2023-03-18T15:07:42;16.90;99.90
15115;DHT22;7658;51.456;7.622;2023-03-18T15:10:20;16.90;99.90
15115;DHT22;7658;51.456;7.622;2023-03-18T15:13:11;16.70;99.90
15115;DHT22;7658;51.456;7.622;2023-03-18T15:15:37;16.60;99.90
15115;DHT22;7658;51.456;7.622;2023-03-18T15:18:33;16.50;99.90
15115;DHT22;7658;51.456;7.622;2023-03-18T15:21:09;16.30;99.90
15115;DHT22;7658;51.456;7.622;2023-03-18T15:23:46;16.30;99.90
15115;DHT22;7658;51.456;7.622;2023-03-18T15:29:00;16.20;99.90
15115;DHT22;7658;51.456;7.622;2023-03-18T15:31:30;16.10;99.90
15115;DHT22;7658;51.456;7.622;2023-03-18T15:34:17;16.00;99.90
15115;DHT22;7658;51.456;7.622;2023-03-18T15:36:49;15.90;99.90
15115;DHT22;7658;51.456;7.622;2023-03-18T15:39:27;15.80;99.90
15115;DHT22;7658;51.456;7.622;2023-03-18T15:41:57;15.70;99.90
15115;DHT22;7658;51.456;7.622;2023-03-18T15:44:26;15.60;99.90
15115;DHT22;7658;51.456;7.622;2023-03-18T15:46:53;15.60;99.90
15115;DHT22;7658;51.456;7.622;2023-03-18T15:49:26;15.50;99.90
15115;DHT22;7658;51.456;7.622;2023-03-18T15:52:02;15.30;99.90
15115;DHT22;7658;51.456;7.622;2023-03-18T15:54:41;15.00;99.90
15115;DHT22;7658;51.456;7.622;2023-03-18T15:57:20;14.80;99.90
15115;DHT22;7658;51.456;7.622;2023-03-18T15:59:47;14.50;99.90
15115;DHT22;7658;51.456;7.622;2023-03-18T16:02:14;14.30;99.90
15115;DHT22;7658;51.456;7.622;2023-03-18T16:04:42;14.10;99.90
15115;DHT22;7658;51.456;7.622;2023-03-18T16:07:17;14.00;99.90
15115;DHT22;7658;51.456;7.622;2023-03-18T16:09:44;13.70;99.90
15115;DHT22;7658;51.456;7.622;2023-03-18T16:12:17;13.40;99.90
15115;DHT22;7658;51.456;7.622;2023-03-18T16:14:47;13.30;99.90
15115;DHT22;7658;51.456;7.622;2023-03-18T16:17:15;13.10;99.90
15115;DHT22;7658;51.456;7.622;2023-03-18T16:19:42;13.10;99.90
15115;DHT22;7658;51.456;7.622;2023-03-18T16:22:10;13.10;99.90
15115;DHT22;7658;51.456;7.622;2023-03-18T16:24:37;13.00;99.90
15115;DHT22;7658;51.456;7.622;2023-03-18T16:30:04;13.00;99.90
15115;DHT22;7658;51.456;7.622;2023-03-18T16:32:30;13.10;99.90
15115;DHT22;7658;51.456;7.622;2023-03-18T16:34:56;13.10;99.90
15115;DHT22;7658;51.456;7.622;2023-03-18T16:37:26;13.10;99.90
15115;DHT22;7658;51.456;7.622;2023-03-18T16:39:53;13.20;99.90
15115;DHT22;7658;51.456;7.622;2023-03-18T16:42:22;13.20;99.90
15115;DHT22;7658;51.456;7.622;2023-03-18T16:44:49;13.20;99.90
15115;DHT22;7658;51.456;7.622;2023-03-18T16:47:22;13.20;99.90
15115;DHT22;7658;51.456;7.622;2023-03-18T16:49:50;13.20;99.90
15115;DHT22;7658;51.456;7.622;2023-03-18T16:52:16;13.10;99.90
15115;DHT22;7658;51.456;7.622;2023-03-18T16:54:42;13.10;99.90
15115;DHT22;7658;51.456;7.622;2023-03-18T16:57:17;13.10;99.90
15115;DHT22;7658;51.456;7.622;2023-03-18T16:59:47;13.10;99.90
15115;DHT22;7658;51.456;7.622;2023-03-18T17:02:32;13.00;99.90
15115;DHT22;7658;51.456;7.622;2023-03-18T17:05:01;13.00;99.90
15115;DHT22;7658;51.456;7.622;2023-03-18T17:07:26;13.00;99.90
15115;DHT22;7658;51.456;7.622;2023-03-18T17:09:54;13.10;99.90
15115;DHT22;7658;51.456;7.622;2023-03-18T17:12:20;13.00;99.90
15115;DHT22;7658;51.456;7.622;2023-03-18T17:14:51;13.00;99.90
15115;DHT22;7658;51.456;7.622;2023-03-18T17:17:32;12.90;99.90
15115;DHT22;7658;51.456;7.622;2023-03-18T17:20:01;12.90;99.90
15115;DHT22;7658;51.456;7.622;2023-03-18T17:22:31;12.80;99.90
15115;DHT22;7658;51.456;7.622;2023-03-18T17:24:59;12.70;99.90
15115;DHT22;7658;51.456;7.622;2023-03-18T17:27:31;12.60;99.90
15115;DHT22;7658;51.456;7.622;2023-03-18T17:29:58;12.60;99.90
15115;DHT22;7658;51.456;7.622;2023-03-18T17:32:25;12.60;99.90
15115;DHT22;7658;51.456;7.622;2023-03-18T17:34:52;12.60;99.90
15115;DHT22;7658;51.456;7.622;2023-03-18T17:37:19;12.60;99.90
15115;DHT22;7658;51.456;7.622;2023-03-18T17:39:45;12.50;99.90
15115;DHT22;7658;51.456;7.622;2023-03-18T17:42:32;12.40;99.90
15115;DHT22;7658;51.456;7.622;2023-03-18T17:45:23;12.40;99.90
15115;DHT22;7658;51.456;7.622;2023-03-18T17:47:49;12.50;99.90
15115;DHT22;7658;51.456;7.622;2023-03-18T17:50:16;12.40;99.90
15115;DHT22;7658;51.456;7.622;2023-03-18T17:52:44;12.40;99.90
15115;DHT22;7658;51.456;7.622;2023-03-18T17:55:15;12.40;99.90
15115;DHT22;7658;51.456;7.622;2023-03-18T17:57:42;12.40;99.90
15115;DHT22;7658;51.456;7.622;2023-03-18T18:00:23;12.30;99.90
15115;DHT22;7658;51.456;7.622;2023-03-18T18:02:52;12.30;99.90
15115;DHT22;7658;51.456;7.622;2023-03-18T18:05:22;12.30;99.90
15115;DHT22;7658;51.456;7.622;2023-03-18T18:07:49;12.30;99.90
15115;DHT22;7658;51.456;7.622;2023-03-18T18:10:17;12.30;99.90